KLFT

Lafayette Regional / Paul Fournet Field Airport

Lafayette, Louisiana, USA
KLFT 251753Z 2518/2618 19007KT P6SM SCT030 FM260800 32011KT P6SM VCSH OVC025 FM261400 33010KT P6SM OVC050 FM261600 33010KT P6SM SKC
Issued Valid From Valid To
Apr-25 @ 17:53 UTC
(12 minutes ago)
Apr-25 @ 18:00 UTC
(5 minutes ago)
Apr-26 @ 18:00 UTC
(in 24 hours)
Apr-25 @ 18:00 to Apr-26 @ 08:00
KLFT 251753Z 2518/2618 19007KT P6SM SCT030
Wind Visibility Clouds
190° at 7 knots Greater than 6 miles
  • Scattered at 3,000' AGL
From Apr-26 @ 08:00 to Apr-26 @ 14:00
FM260800 32011KT P6SM VCSH OVC025
Wind Visibility Clouds
320° at 11 knots Greater than 6 miles
  • Overcast at 2,500' AGL
From Apr-26 @ 14:00 to Apr-26 @ 16:00
FM261400 33010KT P6SM OVC050
Wind Visibility Clouds
330° at 10 knots Greater than 6 miles
  • Overcast at 5,000' AGL
From Apr-26 @ 16:00 to Apr-26 @ 18:00
FM261600 33010KT P6SM SKC
Wind Visibility Clouds
330° at 10 knots Greater than 6 miles
  • Clear skies
KLFT 251753Z 2518/2618 19007KT P6SM SCT030 FM260800 32011KT P6SM VCSH OVC025 FM261400 33010KT P6SM OVC050 FM261600 33010KT P6SM SKC
Issued Apr-25 @ 17:53 UTC
(12 minutes ago)
Valid From Apr-25 @ 18:00 UTC
(5 minutes ago)
Valid To Apr-26 @ 18:00 UTC
(in 24 hours)
Apr-25 @ 18:00 - Apr-26 @ 08:00
Wind Visibility
190° at 7 knots Greater than 6 miles
Clouds
  • Scattered at 3,000' AGL
From Apr-26 @ 08:00 - Apr-26 @ 14:00
Wind Visibility
320° at 11 knots Greater than 6 miles
Clouds
  • Overcast at 2,500' AGL
From Apr-26 @ 14:00 - Apr-26 @ 16:00
Wind Visibility
330° at 10 knots Greater than 6 miles
Clouds
  • Overcast at 5,000' AGL
From Apr-26 @ 16:00 - Apr-26 @ 18:00
Wind Visibility
330° at 10 knots Greater than 6 miles
Clouds
  • Clear skies